Regionale Übersicht

METAR und TAF

Donnerstag, 01. Oktober 2020 - 03:35 Uhr

Beobachtete horizontale meteorologische Sicht an ausgewählten Flughäfen. Die vollständigen METARs und Flugwettervorhersagen (TAFs) sind verfügbar, wenn Sie auf das entsprechende Symbol mit der ICAO-Flughafenkennung klicken.

  • Luxemburg (ELLX)

    Taf: TAF ELLX 302300Z 0100/0206 13005KT 6000 SCT002 TEMPO 0100/0109 2000 BR PROB40 0102/0108 0800 FG VV002 BECMG 0109/0111 23013G25KT TEMPO 0111/0116 3000 RA SHRA BKN015 SCT015TCU BECMG 0116/0118 19005KT=

    Metar: METAR ELLX 010120Z AUTO 14007KT //// R06/P2000N // FEW029/// SCT033/// BKN049/// 11/10 Q1008 NOSIG=

  • Spangdahlem (ETAD)

    Taf: TAF ETAD 302000Z 3020/0202 VRB06KT 9999 SCT015 BKN025 QNH2982INS BECMG 0101/0102 16004KT 3600 BR BKN010 OVC015 QNH2975INS BECMG 0104/0105 VRB04KT 2400 BR BKN007 OVC013 QNH2967INS BECMG 0108/0109 18012KT 5000 BR SCT007 BKN013 QNH2964INS BECMG 0112/0113 19010G15KT 8000 -RA SCT010 BKN020 QNH2960INS BECMG 0119/0120 20010KT 9999 NSW SCT015 BKN025 QNH2958INS BECMG 0200/0201 VRB06KT 5000 BR BKN015 OVC025 QNH2960INS TX17/0114Z TN09/0104Z LAST NO AMDS AFT 3020=

    Metar: METAR ETAD 010056Z AUTO 00000KT 9999 CLR 10/10 A2978 RMK AO2 SLP073 T01020102 $=

  • Metz/Nancy (LFJL)

    Taf: TAF LFJL 302300Z 0100/0124 11008KT 9999 SCT030 BKN050 PROB30 0102/0107 4000 BR BKN005 BECMG 0108/0111 21015G25KT TEMPO 0111/0114 4000 RA BKN020 TEMPO 0114/0116 4000 SHRA FEW030TCU BECMG 0118/0121 15010KT=

    Metar: METAR LFJL 010100Z AUTO 15011KT 9999 FEW043 BKN180 OVC210 12/10 Q1008 TEMPO 4000 BR BKN005=

  • Saarbrücken/Intl (EDDR)

    Taf: TAF EDDR 302300Z 0100/0124 10005KT CAVOK TEMPO 0100/0107 2500 BR PROB30 TEMPO 0102/0107 0500 FG BKN001 BECMG 0109/0111 20010KT TEMPO 0113/0116 RA BKN014 PROB30 TEMPO 0116/0120 4500 SHRA BKN014TCU BECMG 0120/0122 20005KT=

    Metar: METAR EDDR 010120Z VRB02KT 9999 BKN038 11/10 Q1008=

  • Hahn (EDFH)

    Taf: TAF EDFH 302300Z 0100/0124 15008KT CAVOK TEMPO 0100/0109 2000 BR BKN005 PROB30 TEMPO 0101/0107 0500 FG BKN001 BECMG 0110/0112 22010KT TEMPO 0113/0116 RA BKN010 PROB30 TEMPO 0116/0120 4500 SHRA BKN010TCU BECMG 0120/0122 20005KT=

    Metar: METAR EDFH 010120Z 15011KT 3000 BR NSC 09/09 Q1008=

  • Ramstein (ETAR)

    Taf: TAF ETAR 301800Z 3018/0124 VRB06KT 9999 SCT040 QNH2980INS BECMG 0100/0101 VRB06KT 5000 BR SCT005 BKN020 QNH2974INS TEMPO 0102/0106 3200 BR BKN005 BECMG 0106/0107 16006KT 9999 NSW BKN040 QNH2970INS BECMG 0111/0112 19010G15KT 8000 -SHRA BKN025 610803 QNH2964INS BECMG 0120/0121 18009KT 9999 NSW BKN020 610803 QNH2964INS TX18/0114Z TN07/0104Z=

    Metar: nil

  • Nancy/Ochey (LFSO)

    Taf: TAF LFSO 302000Z NIL=

    Metar: METAR LFSO 010100Z AUTO 15006KT CAVOK 12/10 Q1008=

  • Liège Bierset (EBLG)

    Taf: TAF EBLG 302320Z 0100/0206 16007KT 9999 FEW025 PROB40 TEMPO 0107/0109 4000 SHRA BKN013TCU PROB40 TEMPO 0109/0114 18015G28KT 4000 SHRA BKN012CB BECMG 0113/0115 24010KT PROB30 TEMPO 0115/0118 4000 SHRA BKN014 BECMG 0200/0202 12008KT=

    Metar: METAR EBLG 010120Z 16008KT 130V210 9999 SCT045 15/12 Q1006 NOSIG=

  • Saint-Dizier (LFSI)

    Taf: TAF LFSI 302000Z 3021/0121 16008KT 9999 SCT035 TEMPO 3021/3024 1000 BCFG BECMG 0105/0107 4000 RA BKN008 BKN020 BECMG 0111/0113 9999 NSW SCT020 TEMPO 0113/0118 4000 SHRA SCT020TCU=

    Metar: METAR LFSI 010100Z AUTO VRB03KT CAVOK 13/11 Q1007=

  • Maastricht/Zuid Limburg (EHBK)

    Taf: TAF EHBK 302302Z 0100/0206 17008KT 9999 SCT040 BECMG 0108/0111 7000 -RA TEMPO 0111/0117 20012G22KT 4500 SHRA RA BKN012 SCT015CB BECMG 0112/0115 21010KT 9999 NSW BECMG 0120/0123 16005KT=

    Metar: METAR EHBK 010125Z AUTO 15006KT 9999 NSC 15/12 Q1006=

  • Köln/Köln-Bonn (EDDK)

    Taf: TAF EDDK 302300Z 0100/0206 11007KT 9999 SCT030 BECMG 0111/0114 17009KT PROB30 TEMPO 0114/0117 22014KT SHRA BKN014TCU BECMG 0123/0202 11006KT=

    Metar: METAR EDDK 010120Z 11006KT 9999 FEW033 12/10 Q1008 NOSIG=

  • Charleroi (EBCI)

    Taf: TAF EBCI 302320Z 0100/0206 16007KT 9999 FEW025 PROB40 TEMPO 0105/0109 4000 SHRA BKN013TCU PROB40 TEMPO 0109/0113 18015G28KT 4000 SHRA BKN012CB BECMG 0113/0115 24010KT PROB30 TEMPO 0115/0118 4000 SHRA BKN014 BECMG 0200/0202 12008KT=

    Metar: METAR EBCI 010120Z 16007KT 130V190 CAVOK 15/12 Q1005 NOSIG=

  • Wiesbaden (ETOU)

    Taf: TAF AMD ETOU 302000Z 3020/0118 07005KT 9999 SKC QNH2990INS BECMG 0102/0103 09003KT 5000 BR BKN015 OVC030 QNH2978INS BECMG 0111/0112 17005KT 9999 NSW SCT015 BKN040 QNH2968INS BECMG 0115/0116 19012KT 8000 -DZ SCT015 BKN020 QNH2963INS TX14/0112Z TN11/0106Z LAST NO AMDS AFT 3020=

    Metar: METAR ETOU 010056Z AUTO 08004KT 9999 CLR 12/10 A2980 RMK AO2 SLP093 T01180100 $=

  • Karlsruhe/Baden-Baden (EDSB)

    Taf: TAF EDSB 302337Z 0100/0124 VRB03KT CAVOK TEMPO 0100/0109 2500 BR PROB30 TEMPO 0104/0108 0400 FG BKN001 BECMG 0110/0112 22010KT PROB40 TEMPO 0113/0116 RA BCEMG BECMG 0117/0119 VRB03KT=

    Metar: METAR EDSB 010120Z AUTO VRB02KT 9999 // NCD 08/07 Q1009=

  • Chalons/Vatry (LFOK)

    Taf: TAF LFOK 302300Z 0100/0124 16006KT CAVOK PROB30 TEMPO 0102/0105 4000 RA TEMPO 0105/0110 3000 RA BKN007 OVC015 FM011000 23012KT 9999 BKN020 TEMPO 0110/0118 23015G25KT 3000 SHRA BKN013 BKN030CB PROB30 TEMPO 0112/0116 23020G30KT TSRA BECMG 0118/0120 16007KT=

    Metar: METAR LFOK 010100Z AUTO 16009KT CAVOK 13/11 Q1007 TEMPO 4000 RA=

  • Frankfurt/Main (EDDF)

    Taf: TAF EDDF 302300Z 0100/0206 06004KT 9999 FEW030 PROB30 TEMPO 0102/0107 2500 BR BECMG 0109/0111 20008KT BECMG 0112/0115 BKN040 PROB30 TEMPO 0115/0117 RA BECMG 0120/0122 VRB03KT PROB30 TEMPO 0202/0206 3000 BR=

    Metar: METAR EDDF 010120Z 08005KT 9999 FEW032 10/09 Q1009 NOSIG=

  • Brüssel (EBBR)

    Taf: TAF EBBR 302320Z 0100/0206 16007KT 9999 FEW025 PROB40 TEMPO 0105/0109 4000 SHRA BKN013TCU PROB40 TEMPO 0109/0114 18015G28KT 4000 SHRA BKN012CB BECMG 0113/0115 24010KT PROB30 TEMPO 0115/0118 4000 SHRA BKN014 BECMG 0200/0202 12008KT=

    Metar: METAR EBBR 010120Z 16007KT 130V190 CAVOK 15/13 Q1005 TEMPO FM0140 4000 SHRA BKN014TCU=

  • Düsseldorf (EDDL)

    Taf: TAF EDDL 302300Z 0100/0206 15013KT 9999 SCT030 PROB30 TEMPO 0114/0117 22015G25KT SHRA BKN014TCU BECMG 0115/0117 19007KT BECMG 0123/0202 13008KT=

    Metar: METAR EDDL 010120Z 15009KT 120V190 CAVOK 14/10 Q1007 NOSIG=

  • Luxeuil (LFSX)

    Taf: TAF LFSX 302000Z NIL=

    Metar: METAR LFSX 010100Z AUTO 08004KT CAVOK 10/09 Q1009=

  • Eindhoven (EHEH)

    Taf: TAF EHEH 302315Z 0100/0206 15008KT 9999 SCT040 BKN060 TEMPO 0109/0115 4000 RA FEW012 SCT015 OVC020 BECMG 0113/0115 21010KT TEMPO 0113/0117 22012G22KT SCT012 SCT015CB BKN020 BECMG 0117/0120 18005KT BECMG 0201/0204 10006KT=

    Metar: METAR EHEH 010125Z AUTO 13007KT 110V170 9999 BKN072 OVC077 16/14 Q1005 BLU=

  • Niederrhein (EDLV)

    Taf: TAF EDLV 302300Z NIL=

    Metar: METAR EDLV 010120Z NIL=

  • Dortmund/Wickede (EDLW)

    Taf: TAF EDLW 302300Z NIL=

    Metar: METAR EDLW 010120Z AUTO 16008KT 9999 // FEW098/// SCT230/// 12/10 Q1007=

  • Stuttgart/Echterdingen (EDDS)

    Taf: TAF EDDS 302300Z 0100/0124 VRB02KT CAVOK TEMPO 0102/0107 2000 BCFG BECMG 0110/0112 20005KT BECMG 0117/0119 VRB03KT=

    Metar: METAR EDDS 010120Z 28002KT 9999 BCFG NSC 08/06 Q1010=

  • Basel-Mühlhausen (LFSB)

    Taf: TAF LFSB 302300Z 0100/0124 19003KT CAVOK PROB30 TEMPO 0102/0106 3000 BR TEMPO 0111/0118 -RA FEW050TCU PROB40 TEMPO 0113/0116 26010KT=

    Metar: METAR LFSB 010100Z AUTO 19005KT CAVOK 10/09 Q1010 TEMPO 3000 BR=

  • Lille (LFQQ)

    Taf: TAF LFQQ 302300Z 0100/0206 16008KT CAVOK PROB30 TEMPO 0100/0104 4000 RA BKN013 TEMPO 0104/0109 3000 RA BKN007 OVC015 FM010900 23012KT 9999 BKN020 TEMPO 0110/0119 23015G25KT 3000 SHRA BKN013 BKN020CB PROB30 TEMPO 0112/0116 23020G30KT TSRA BECMG 0119/0121 16007KT BECMG 0204/0206 10015KT 4000 RA=

    Metar: METAR LFQQ 010100Z AUTO 16010KT CAVOK 15/13 Q1003 TEMPO 4000 RA BKN013=

  • Paris/Charles de Gaulle (LFPG)

    Taf: TAF LFPG 302300Z 0100/0206 18010KT CAVOK TX16/0115Z TN10/0203Z PROB40 TEMPO 0104/0108 3000 RA BKN006 PROB30 TEMPO 0106/0108 22015G25KT FEW010TCU BECMG 0106/0108 25012KT TEMPO 0109/0116 25015G25KT -SHRA SCT025TCU PROB30 TEMPO 0112/0115 4000 TSRA SCT025CB BECMG 0118/0121 16010KT BECMG 0201/0203 13015G25KT PROB40 TEMPO 0204/0206 BKN010=

    Metar: METAR LFPG 010100Z 17008KT CAVOK 15/13 Q1005 NOSIG=

  • Paderborn/Lippstadt (EDLP)

    Taf: TAF EDLP 302300Z 0100/0124 15006KT 9999 SCT030 BECMG 0101/0104 15011KT BECMG 0116/0119 19006KT PROB30 TEMPO 0116/0118 26010KT 4500 RA BKN012=

    Metar: METAR EDLP 010120Z 11004KT 080V140 CAVOK 12/09 Q1009=

  • Paris/Le Bourget (LFPB)

    Taf: TAF LFPB 302300Z 0100/0124 18010KT CAVOK PROB40 TEMPO 0104/0108 3000 RA BKN007 PROB30 TEMPO 0106/0108 22015G25KT FEW010TCU BECMG 0106/0108 25012KT TEMPO 0109/0116 25015G25KT -SHRA SCT025TCU PROB30 TEMPO 0112/0115 4000 TSRA SCT025CB BECMG 0118/0121 16010KT=

    Metar: METAR LFPB 010100Z AUTO 16009KT CAVOK 15/13 Q1004 NOSIG=

  • Rotterdam (EHRD)

    Taf: TAF EHRD 302303Z 0100/0206 15012KT CAVOK BECMG 0107/0110 7000 -RA BKN018 TEMPO 0110/0114 4000 RA SHRA BKN012 SCT015CB BECMG 0113/0115 22008KT 9999 NSW SCT022 PROB40 TEMPO 0114/0120 23012G22KT 6000 SHRA SCT018CB BKN022 BECMG 0121/0124 15005KT PROB30 0200/0205 4000 MIFG BR BECMG 0203/0206 09008KT=

    Metar: METAR EHRD 010125Z AUTO 15010KT 120V180 9999 NSC 16/13 Q1004 NOSIG=

  • Zürich/Kloten (LSZH)

    Taf: TAF LSZH 302325Z 0100/0206 VRB03KT 5000 MIFG SCT018 TX18/0114Z TN07/0104Z TN09/0204Z BECMG 0100/0102 1000 PRFG SCT002 BECMG 0102/0104 0400 FG VV002 PROB30 0104/0106 0200 VV001 BECMG 0108/0110 4500 BR FEW008 SCT012 BECMG 0110/0112 CAVOK PROB40 0114/0117 28010KT BECMG 0115/0117 9999 SHRA SCT020 BKN040 BECMG 0119/0122 NSC=

    Metar: METAR LSZH 010120Z VRB01KT 4500 BR BKN012 09/09 Q1011 NOSIG=

  • Oostende/Intl (EBOS)

    Taf: TAF EBOS 302320Z 0100/0206 16012KT 9999 FEW022TCU PROB40 TEMPO 0104/0109 4000 SHRA BKN013 BECMG 0109/011 25008KT PROB40 TEMPO 0109/0114 4000 SHRA BKN013CB PROB30 TEMPO 0113/0116 25015G28KT BECMG 0200/0202 11010KT=

    Metar: METAR EBOS 010120Z 16009KT 9999 -RA FEW020 BKN042 15/13 Q1003 NOSIG=

  • Paris/Orly (LFPO)

    Taf: TAF LFPO 302300Z 0100/0206 18007KT 9999 -RA BKN040 TEMPO 0103/0108 4000 RA BKN012 SCT060TCU BECMG 0108/0110 26012KT NSW SCT025 BKN040 TEMPO 0110/0115 26015G25KT -SHRA SCT030TCU BECMG 0200/0202 14015G25KT 6000 -RA BKN020 BKN060TCU TEMPO 0202/0206 14015G30KT 2500 RA=

    Metar: METAR LFPO 010100Z 18007KT CAVOK 15/13 Q1005 NOSIG=

  • Beauvais (LFOB)

    Taf: TAF LFOB 302300Z 0100/0124 16007KT CAVOK PROB30 TEMPO 0100/0102 4000 RA BKN013 TEMPO 0102/0108 3000 RA BKN007 OVC015 FM010800 24012KT 9999 BKN020 TEMPO 0108/0118 24015G25KT 3000 SHRA BKN013 BKN030CB PROB30 TEMPO 0111/0116 24020G30KT TSRA BECMG 0118/0120 16008KT=

    Metar: METAR LFOB 010100Z AUTO 17008KT 9999 -RA FEW038 OVC058 14/13 Q1004 TEMPO 3000 RA BKN007 OVC015=

  • Münster/Intl (EDDG)

    Taf: TAF EDDG 302300Z 0100/0124 11005KT 9999 SCT030 BECMG 0107/0110 17006KT PROB30 TEMPO 0116/0118 23010KT 4500 RA BKN012=

    Metar: METAR EDDG 010120Z 12003KT 070V190 CAVOK 11/10 Q1008 NOSIG=

  • Illesheim (ETIK)

    Taf: TAF AMD ETIK 010052Z 0100/0204 VRB06KT 8000 BR SCT040 QNH2982INS TEMPO 0100/0108 1400 BR BECMG 0108/0109 16009KT 9999 NSW SCT030 QNH2968INS BECMG 0122/0123 22009KT 8000 BR BKN020 QNH2965INS TX17/0114Z TN07/0106Z=

    Metar: METAR ETIK 010056Z AUTO 00000KT 6000 BR CLR 07/07 A2987 RMK AO2 SLP116 T00700070 $=

  • Duebendorf (LSMD)

    Taf: TAF LSMD 301625Z 3017/0123 VRB03KT CAVOK BECMG 3021/3023 4500 MIFG BECMG 0100/0102 2000 BCFG SCT002 BECMG 0101/0103 0400 FG VV002 PROB30 0104/0106 0200 VV001 BECMG 0108/0110 4500 BR FEW008 SCT012 BECMG 0110/0112 CAVOK PROB40 0114/0117 28010KT BECMG 0114/0116 SCT080 BECMG 0115/0117 9999 SHRA=

    Metar: METAR LSMD 010120Z AUTO 00000KT 1400NDV R11/P2000N R29/P2000N FG SCT001 SCT006 08/08 Q1011 RMK=

  • Villacoublay (LFPV)

    Taf: TAF LFPV 302000Z 3021/0121 16006KT 9999 FEW035 BKN170 TEMPO 3021/3023 -RADZ BECMG 0102/0104 20010G20KT 3500 RA BKN010 TEMPO 0104/0108 BKN007 TEMPO 0110/0114 -SHRA FEW050TCU=

    Metar: METAR LFPV 010100Z AUTO 18009KT 9999 BKN049 OVC092 15/12 Q1004 BECMG 3500 RA BKN010=

  • Payerne (LSMP)

    Taf: TAF LSMP 301625Z 3017/0123 VRB03KT CAVOK BECMG 3023/0101 4500 BR PROB40 TEMPO 0103/0106 1200 BCFG SCT004 BECMG 0110/0112 23010KT 9999 BKN070 TEMPO 0111/0117 RA=

    Metar: METAR LSMP 010120Z AUTO VRB02KT 6000NDV FEW011 BKN013 BKN015 09/08 Q1011 RMK=

  • Amsterdam/Schipol (EHAM)

    Taf: TAF EHAM 302303Z 0100/0206 15012KT CAVOK BECMG 0108/0111 7000 -RA BKN018 TEMPO 0111/0115 4000 RA SHRA BKN012 SCT015CB BECMG 0114/0116 22008KT 9999 NSW SCT022 PROB40 TEMPO 0115/0121 23012G22KT 6000 SHRA SCT018CB BKN022 BECMG 0121/0124 15005KT PROB30 0200/0205 6000 MIFG BECMG 0203/0206 09008KT=

    Metar: METAR EHAM 010125Z 14011KT 110V170 CAVOK 16/14 Q1004 NOSIG=

  • Emmen (LSME)

    Taf: TAF AMD LSME 302027Z 3020/0123 VRB03KT 9000 NSC BECMG 3021/3023 4500 MIFG BECMG 0100/0102 2000 BCFG SCT002 BECMG 0101/0103 0400 FG VV002 PROB30 0104/0106 0200 VV001 BECMG 0108/0110 4500 BR FEW008 SCT012 BECMG 0110/0112 CAVOK PROB40 0114/0117 27010KT BECMG 0114/0116 SCT100 BECMG 0115/0117 9999 SHRA=

    Metar: METAR LSME 010120Z AUTO 00000KT 5000NDV OVC010 09/09 Q1011 RMK=

  • Friedrichshafen (EDNY)

    Taf: TAF EDNY 302300Z 0100/0124 VRB03KT 8000 NSC BECMG 0101/0104 3500 BCFG TEMPO 0103/0108 0700 FG OVC002 BECMG 0108/0110 BKN008 BECMG 0110/0113 SCT008=

    Metar: METAR EDNY 010120Z AUTO VRB01KT 4200 // BKN002/// OVC008/// 10/10 Q1011=

  • Alpnach (LSMA)

    Taf: TAF AMD LSMA 302028Z 3020/0123 VRB03KT CAVOK BECMG 3020/3023 7000 BKN012 PROB40 0101/0107 4000 BR OVC008 BECMG 0110/0112 CAVOK BECMG 0114/0116 9999 SCT100 BECMG 0115/0117 9999 SHRA=

    Metar: METAR LSMA 010120Z AUTO VRB01KT 0500NDV R01/0400V0600N R19/0450N -SHRA FG VV001 09/08 Q1012 RMK=

  • Meiringen (LSMM)

    Taf: TAF AMD LSMM 302026Z 3020/0123 10004KT 9999 BKN023 BECMG 3021/3024 4000 BR BECMG 0100/0102 2000 BCFG BECMG 0102/0104 0200 FG VV001 BECMG 0108/0110 4000 BR BKN003 SCT020 BECMG 0110/0112 CAVOK BECMG 0114/0116 9999 SCT100 BECMG 0115/0117 9999 SHRA=

    Metar: METAR LSMM 010120Z AUTO 11003KT 080V140 9999NDV OVC017 09/09 Q1012 RMK=

  • Nürnberg (EDDN)

    Taf: TAF EDDN 302300Z 0100/0124 VRB03KT 6000 NSC TEMPO 0100/0108 3500 BCFG PROB30 TEMPO 0101/0107 0400 FG OVC001 TEMPO 0108/0110 BKN007=

    Metar: METAR EDDN 010120Z VRB02KT 9000 BCFG NSC 06/06 Q1011=

  • Rouen (LFOP)

    Taf: TAF LFOP 302300Z NIL=

    Metar: METAR LFOP 010100Z AUTO 16009KT 9999 -RA FEW021 SCT037 BKN046 14/13 Q1003=

  • Evreux (LFOE)

    Taf: TAF AMD LFOE 302206Z 3022/0121 17010KT CAVOK BECMG 3022/3023 4000 -RA BKN020 OVC050 PROB40 TEMPO 0100/0105 2000 RA BKN010 OVC030 BECMG 0105/0107 25012KT 9999 NSW BKN008 TEMPO 0108/0115 4000 -SHRA BKN025CB BECMG 0109/0111 BKN025=

    Metar: METAR LFOE 010100Z AUTO 17009KT 9999 SCT019/// BKN047/// BKN056/// ///TCU 15/12 Q1003 TEMPO 2000 RA BKN010 OVC030=

  • Erfurt/Bindersleben (EDDE)

    Taf: TAF EDDE 302300Z 0100/0124 VRB03KT 6000 NSC BECMG 0100/0103 2000 BCFG TEMPO 0100/0107 0100 FG BKN001 BECMG 0108/0112 6000=

    Metar: METAR EDDE 010120Z 21008KT CAVOK 09/08 Q1011=